createdAt,value
2022-09-03T00:00:37.216Z,7.20
2022-09-03T00:03:12.117Z,7.18
2022-09-03T00:05:46.561Z,7.30
2022-09-03T00:08:21.550Z,7.88
2022-09-03T00:10:54.578Z,7.72
2022-09-03T00:13:27.005Z,8.10
2022-09-03T00:15:59.734Z,7.55
2022-09-03T00:18:35.006Z,7.47
2022-09-03T00:21:08.687Z,9.07
2022-09-03T00:23:40.180Z,8.05
2022-09-03T00:26:19.667Z,8.88
2022-09-03T00:28:52.511Z,8.05
2022-09-03T00:31:27.287Z,8.32
2022-09-03T00:34:01.088Z,8.35
2022-09-03T00:36:36.570Z,9.07
2022-09-03T00:39:07.309Z,8.45
2022-09-03T00:41:41.505Z,8.55
2022-09-03T00:44:38.406Z,9.30
2022-09-03T00:47:16.124Z,8.60
2022-09-03T00:49:57.404Z,8.07
2022-09-03T00:52:40.162Z,8.60
2022-09-03T00:55:14.132Z,9.68
2022-09-03T00:57:57.880Z,9.45
2022-09-03T01:00:26.501Z,9.30
2022-09-03T01:03:07.842Z,9.05
2022-09-03T01:05:49.433Z,10.23
2022-09-03T01:08:37.007Z,9.20
2022-09-03T01:11:16.872Z,9.05
2022-09-03T01:13:51.122Z,9.60
2022-09-03T01:16:29.119Z,9.80
2022-09-03T01:19:11.826Z,9.43
2022-09-03T01:22:07.275Z,10.32
2022-09-03T01:24:59.275Z,14.25
2022-09-03T01:27:43.990Z,14.35
2022-09-03T01:30:18.452Z,16.58
2022-09-03T01:32:53.608Z,16.17
2022-09-03T01:35:29.771Z,16.67
2022-09-03T01:38:08.313Z,17.10
2022-09-03T01:40:43.673Z,16.10
2022-09-03T01:43:34.144Z,16.67
2022-09-03T01:46:14.096Z,17.02
2022-09-03T01:48:50.412Z,17.63
2022-09-03T01:51:21.945Z,17.38
2022-09-03T01:54:21.457Z,17.88
2022-09-03T01:57:34.942Z,16.50
2022-09-03T02:00:07.727Z,16.48
2022-09-03T02:02:37.465Z,17.55
2022-09-03T02:05:09.242Z,17.77
2022-09-03T02:07:40.545Z,17.13
2022-09-03T02:10:12.051Z,17.08
2022-09-03T02:12:43.248Z,17.40
2022-09-03T02:15:14.897Z,16.58
2022-09-03T02:17:46.570Z,17.38
2022-09-03T02:20:21.595Z,17.65
2022-09-03T02:22:50.784Z,17.67
2022-09-03T02:25:19.277Z,17.75
2022-09-03T02:27:49.420Z,17.77
2022-09-03T02:30:18.610Z,19.15
2022-09-03T02:32:48.307Z,19.05
2022-09-03T02:35:16.829Z,19.58
2022-09-03T02:37:45.193Z,19.23
2022-09-03T02:40:13.495Z,19.50
2022-09-03T02:42:42.125Z,19.63
2022-09-03T02:45:21.303Z,19.50
2022-09-03T02:47:54.404Z,19.17
2022-09-03T02:50:22.885Z,19.77
2022-09-03T02:52:51.604Z,19.45
2022-09-03T02:55:21.082Z,20.27
2022-09-03T02:57:49.308Z,20.85
2022-09-03T03:00:18.732Z,19.92
2022-09-03T03:02:47.165Z,21.00
2022-09-03T03:05:24.786Z,19.98
2022-09-03T03:07:53.369Z,20.55
2022-09-03T03:10:21.625Z,20.80
2022-09-03T03:12:50.081Z,20.70
2022-09-03T03:15:19.494Z,20.33
2022-09-03T03:17:47.799Z,21.80
2022-09-03T03:20:17.565Z,21.60
2022-09-03T03:22:45.889Z,21.13
2022-09-03T03:25:14.376Z,22.58
2022-09-03T03:27:43.319Z,22.45
2022-09-03T03:30:13.090Z,22.27
2022-09-03T03:32:41.776Z,23.25
2022-09-03T03:35:11.930Z,22.83
2022-09-03T03:37:42.029Z,22.92
2022-09-03T03:40:11.132Z,23.85
2022-09-03T03:42:39.616Z,24.05
2022-09-03T03:45:10.139Z,23.77
2022-09-03T03:47:38.684Z,22.92
2022-09-03T03:50:07.906Z,24.35
2022-09-03T03:52:36.130Z,24.70
2022-09-03T03:55:06.876Z,25.08
2022-09-03T03:57:36.112Z,24.40
2022-09-03T04:00:05.032Z,24.23
2022-09-03T04:02:38.492Z,24.55
2022-09-03T04:05:07.897Z,24.50
2022-09-03T04:07:36.770Z,24.85
2022-09-03T04:10:07.184Z,25.38
2022-09-03T04:12:35.335Z,25.60
2022-09-03T04:15:04.200Z,25.95
2022-09-03T04:17:32.586Z,24.17
2022-09-03T04:20:00.785Z,24.95
2022-09-03T04:22:30.435Z,26.30
2022-09-03T04:24:58.818Z,25.73
2022-09-03T04:27:28.300Z,25.58
2022-09-03T04:29:56.627Z,25.13
2022-09-03T04:32:42.287Z,26.23
2022-09-03T04:35:11.032Z,26.65
2022-09-03T04:37:39.442Z,26.50
2022-09-03T04:40:08.543Z,25.95
2022-09-03T04:42:38.053Z,26.00
2022-09-03T04:45:06.887Z,25.95
2022-09-03T04:47:36.539Z,27.20
2022-09-03T04:50:05.470Z,28.02
2022-09-03T04:52:33.878Z,26.30
2022-09-03T04:55:02.370Z,26.27
2022-09-03T04:57:34.528Z,27.25
2022-09-03T05:00:04.870Z,27.05
2022-09-03T05:02:33.341Z,28.55
2022-09-03T05:05:01.673Z,27.88
2022-09-03T05:07:38.435Z,28.55
2022-09-03T05:10:08.515Z,29.10
2022-09-03T05:12:36.827Z,27.92
2022-09-03T05:15:07.468Z,27.92
2022-09-03T05:17:38.541Z,30.23
2022-09-03T05:20:07.735Z,30.08
2022-09-03T05:22:36.060Z,28.95
2022-09-03T05:25:04.566Z,29.05
2022-09-03T05:27:33.278Z,28.73
2022-09-03T05:30:01.614Z,27.98
2022-09-03T05:32:34.341Z,28.90
2022-09-03T05:35:02.932Z,29.58
2022-09-03T05:37:31.369Z,27.90
2022-09-03T05:39:59.808Z,28.55
2022-09-03T05:42:28.346Z,28.15
2022-09-03T05:44:58.017Z,28.58
2022-09-03T05:47:26.235Z,29.55
2022-09-03T05:49:55.717Z,29.45
2022-09-03T05:52:23.885Z,28.63
2022-09-03T05:54:52.246Z,28.95
2022-09-03T05:57:20.769Z,29.95
2022-09-03T05:59:48.926Z,29.25
2022-09-03T06:02:18.050Z,30.00
2022-09-03T06:04:48.194Z,29.67
2022-09-03T06:07:17.651Z,31.30
2022-09-03T06:09:45.885Z,30.92
2022-09-03T06:12:14.227Z,30.75
2022-09-03T06:14:42.916Z,30.30
2022-09-03T06:17:12.704Z,31.70
2022-09-03T06:19:41.136Z,31.02
2022-09-03T06:22:09.578Z,31.27
2022-09-03T06:24:39.034Z,31.58
2022-09-03T06:27:08.402Z,31.48
2022-09-03T06:29:38.693Z,31.13
2022-09-03T06:32:07.235Z,30.15
2022-09-03T06:34:35.674Z,32.38
2022-09-03T06:37:04.116Z,30.38
2022-09-03T06:39:32.392Z,30.33
2022-09-03T06:42:01.896Z,28.33
2022-09-03T06:44:30.194Z,27.55
2022-09-03T06:47:01.391Z,27.58
2022-09-03T06:49:30.748Z,27.85
2022-09-03T06:51:58.957Z,26.77
2022-09-03T06:54:27.539Z,28.63
2022-09-03T06:56:55.955Z,27.00
2022-09-03T06:59:25.528Z,26.38
2022-09-03T07:01:53.990Z,27.17
2022-09-03T07:04:24.911Z,25.95
2022-09-03T07:06:53.153Z,27.08
2022-09-03T07:09:21.459Z,27.13
2022-09-03T07:11:49.917Z,26.27
2022-09-03T07:14:20.021Z,26.00
2022-09-03T07:16:50.765Z,25.67
2022-09-03T07:19:19.304Z,24.20
2022-09-03T07:21:50.486Z,23.70
2022-09-03T07:24:21.950Z,23.55
2022-09-03T07:26:50.446Z,24.30
2022-09-03T07:29:21.791Z,23.52
2022-09-03T07:31:53.220Z,22.42
2022-09-03T07:34:25.478Z,24.38
2022-09-03T07:36:54.188Z,24.20
2022-09-03T07:39:22.670Z,22.45
2022-09-03T07:41:51.209Z,24.13
2022-09-03T07:44:20.703Z,22.17
2022-09-03T07:46:51.750Z,22.23
2022-09-03T07:49:22.553Z,20.15
2022-09-03T07:51:54.642Z,20.33
2022-09-03T07:54:24.126Z,19.13
2022-09-03T07:56:52.769Z,16.83
2022-09-03T07:59:23.049Z,18.70
2022-09-03T08:01:52.143Z,18.65
2022-09-03T08:04:23.015Z,18.05
2022-09-03T08:06:55.572Z,16.30
2022-09-03T08:09:24.556Z,16.05
2022-09-03T08:11:53.012Z,15.82
2022-09-03T08:14:22.118Z,15.63
2022-09-03T08:16:50.319Z,15.50
2022-09-03T08:19:19.357Z,15.65
2022-09-03T08:21:49.085Z,14.20
2022-09-03T08:24:19.192Z,14.48
2022-09-03T08:26:51.774Z,12.55
2022-09-03T08:29:21.493Z,14.77
2022-09-03T08:31:49.875Z,14.48
2022-09-03T08:34:18.571Z,13.65
2022-09-03T08:36:48.980Z,14.63
2022-09-03T08:39:17.696Z,12.85
2022-09-03T08:42:11.996Z,13.93
2022-09-03T08:44:47.334Z,13.13
2022-09-03T08:47:20.826Z,14.23
2022-09-03T08:49:54.509Z,13.70
2022-09-03T08:52:27.915Z,13.45
2022-09-03T08:55:04.052Z,13.35
2022-09-03T08:57:38.008Z,13.57
2022-09-03T09:00:07.054Z,14.57
2022-09-03T09:02:46.016Z,13.85
2022-09-03T09:05:19.497Z,14.48
2022-09-03T09:07:54.579Z,13.73
2022-09-03T09:10:29.541Z,12.30
2022-09-03T09:13:09.650Z,11.73
2022-09-03T09:15:45.802Z,12.32
2022-09-03T09:18:23.181Z,10.43
2022-09-03T09:20:54.755Z,10.50
2022-09-03T09:23:29.522Z,11.02
2022-09-03T09:26:00.543Z,11.82
2022-09-03T09:28:34.539Z,11.27
2022-09-03T09:31:05.187Z,11.93
2022-09-03T09:33:34.636Z,11.93
2022-09-03T09:36:06.296Z,9.52
2022-09-03T09:38:37.781Z,9.43
2022-09-03T09:41:13.861Z,11.02
2022-09-03T09:43:42.318Z,11.32
2022-09-03T09:46:14.912Z,11.18
2022-09-03T09:48:50.518Z,11.45
2022-09-03T09:51:24.631Z,10.60
2022-09-03T09:54:04.738Z,10.00
2022-09-03T09:56:33.094Z,10.10
2022-09-03T09:59:05.215Z,10.30
2022-09-03T10:01:33.908Z,10.55
2022-09-03T10:04:10.709Z,11.65
2022-09-03T10:06:58.066Z,11.93
2022-09-03T10:09:30.975Z,11.95
2022-09-03T10:12:11.151Z,13.43
2022-09-03T10:14:43.630Z,11.93
2022-09-03T10:17:18.178Z,11.85
2022-09-03T10:20:11.930Z,10.25
2022-09-03T10:22:52.446Z,11.40
2022-09-03T10:25:33.003Z,12.02
2022-09-03T10:28:02.220Z,10.93
2022-09-03T10:30:34.393Z,10.07
2022-09-03T10:33:12.805Z,10.18
2022-09-03T10:35:47.324Z,10.20
2022-09-03T10:38:22.941Z,12.07
2022-09-03T10:41:02.579Z,12.27
2022-09-03T10:43:52.057Z,12.18
2022-09-03T10:46:27.500Z,13.13
2022-09-03T10:49:11.949Z,13.48
2022-09-03T10:51:49.255Z,12.20
2022-09-03T10:54:32.588Z,12.35
2022-09-03T10:57:10.132Z,13.85
2022-09-03T10:59:53.928Z,13.07
2022-09-03T11:02:37.101Z,10.90
2022-09-03T11:05:09.614Z,12.45
2022-09-03T11:07:43.082Z,13.02
2022-09-03T11:10:19.500Z,12.07
2022-09-03T11:12:56.282Z,12.57
2022-09-03T11:15:29.220Z,14.00
2022-09-03T11:18:02.612Z,14.07
2022-09-03T11:20:32.222Z,14.05
2022-09-03T11:23:02.803Z,13.50
2022-09-03T11:25:35.572Z,15.35
2022-09-03T11:28:14.364Z,16.20
2022-09-03T11:31:14.560Z,13.02
2022-09-03T11:33:48.050Z,12.82
2022-09-03T11:36:28.141Z,13.45
2022-09-03T11:38:56.753Z,12.65
2022-09-03T11:41:27.570Z,10.68
2022-09-03T11:44:00.117Z,11.30
2022-09-03T11:46:33.260Z,11.93
2022-09-03T11:49:13.407Z,10.52
2022-09-03T11:51:44.093Z,11.98
2022-09-03T11:54:26.660Z,10.75
2022-09-03T11:57:11.691Z,11.77
2022-09-03T11:59:42.660Z,12.63
2022-09-03T12:02:28.988Z,11.95
2022-09-03T12:05:16.054Z,12.80
2022-09-03T12:08:12.942Z,13.02
2022-09-03T12:10:52.216Z,12.75
2022-09-03T12:13:34.536Z,14.43
2022-09-03T12:16:33.045Z,12.82
2022-09-03T12:19:12.789Z,13.32
2022-09-03T12:21:41.598Z,12.57
2022-09-03T12:24:13.684Z,12.68
2022-09-03T12:26:43.132Z,10.55
2022-09-03T12:29:27.631Z,10.45
2022-09-03T12:32:06.853Z,12.48
2022-09-03T12:34:35.155Z,13.63
2022-09-03T12:37:03.551Z,13.30
2022-09-03T12:42:25.185Z,12.73
2022-09-03T12:44:53.788Z,12.90
2022-09-03T12:47:40.652Z,13.05
2022-09-03T12:50:11.477Z,9.45
2022-09-03T12:52:43.828Z,8.85
2022-09-03T12:55:28.448Z,9.05
2022-09-03T12:58:03.507Z,8.82
2022-09-03T13:00:34.751Z,7.97
2022-09-03T13:03:07.807Z,7.97
2022-09-03T13:05:38.070Z,8.02
2022-09-03T13:08:09.769Z,6.97
2022-09-03T13:10:41.982Z,6.10
2022-09-03T13:13:22.223Z,6.13
2022-09-03T13:16:22.680Z,5.75
2022-09-03T13:18:58.185Z,5.50
2022-09-03T13:21:37.911Z,5.40
2022-09-03T13:24:30.219Z,5.68
2022-09-03T13:27:10.533Z,5.38
2022-09-03T13:29:50.461Z,5.85
2022-09-03T13:32:31.697Z,5.55
2022-09-03T13:35:10.553Z,4.40
2022-09-03T13:37:42.985Z,4.20
2022-09-03T13:40:19.494Z,4.25
2022-09-03T13:42:54.239Z,4.38
2022-09-03T13:45:33.023Z,4.75
2022-09-03T13:48:25.449Z,4.30
2022-09-03T13:51:03.567Z,4.43
2022-09-03T13:53:43.237Z,4.10
2022-09-03T13:56:22.320Z,4.18
2022-09-03T13:58:57.145Z,4.05
2022-09-03T14:01:35.090Z,4.18
2022-09-03T14:04:05.639Z,4.10
2022-09-03T14:06:43.126Z,3.72
2022-09-03T14:09:21.184Z,4.90
2022-09-03T14:11:57.281Z,4.07
2022-09-03T14:14:40.513Z,4.07
2022-09-03T14:17:20.406Z,3.97
2022-09-03T14:19:58.242Z,4.18
2022-09-03T14:22:35.829Z,3.80
2022-09-03T14:25:11.111Z,3.80
2022-09-03T14:27:39.479Z,4.13
2022-09-03T14:30:19.112Z,4.10
2022-09-03T14:32:55.352Z,4.45
2022-09-03T14:35:51.930Z,4.60
2022-09-03T14:38:39.664Z,4.05
2022-09-03T14:41:20.791Z,4.97
2022-09-03T14:44:29.034Z,4.32
2022-09-03T14:47:11.835Z,5.70
2022-09-03T14:49:55.006Z,4.88
2022-09-03T14:53:01.061Z,5.07
2022-09-03T14:55:49.546Z,4.85
2022-09-03T14:58:30.843Z,4.35
2022-09-03T15:01:04.324Z,4.88
2022-09-03T15:04:00.167Z,5.22
2022-09-03T15:06:40.409Z,4.57
2022-09-03T15:09:22.649Z,5.07
2022-09-03T15:11:56.655Z,5.18
2022-09-03T15:14:30.771Z,13.77
2022-09-03T15:17:02.116Z,13.15
2022-09-03T15:19:52.494Z,13.10
2022-09-03T15:22:37.889Z,15.00
2022-09-03T15:25:21.474Z,17.30
2022-09-03T15:28:01.933Z,18.58
2022-09-03T15:30:36.784Z,18.20
2022-09-03T15:33:19.650Z,18.75
2022-09-03T15:36:02.839Z,18.58
2022-09-03T15:38:43.392Z,18.75
2022-09-03T15:41:19.908Z,21.38
2022-09-03T15:43:52.125Z,20.55
2022-09-03T15:46:41.250Z,19.95
2022-09-03T15:49:20.309Z,20.00
2022-09-03T15:51:59.913Z,20.17
2022-09-03T15:54:36.746Z,21.88
2022-09-03T15:57:09.217Z,20.58
2022-09-03T15:59:43.391Z,19.40
2022-09-03T16:02:16.945Z,21.48
2022-09-03T16:04:57.366Z,21.92
2022-09-03T16:07:31.548Z,23.33
2022-09-03T16:10:26.093Z,20.63
2022-09-03T16:13:04.901Z,24.67
2022-09-03T16:15:41.400Z,24.52
2022-09-03T16:18:17.819Z,26.85
2022-09-03T16:20:54.514Z,24.35
2022-09-03T16:23:27.863Z,25.63
2022-09-03T16:26:00.742Z,25.88
2022-09-03T16:28:32.366Z,26.77
2022-09-03T16:31:15.550Z,26.40
2022-09-03T16:33:55.168Z,23.75
2022-09-03T16:36:33.908Z,23.67
2022-09-03T16:39:11.143Z,22.50
2022-09-03T16:41:48.593Z,23.25
2022-09-03T16:44:24.844Z,21.33
2022-09-03T16:47:02.900Z,22.58
2022-09-03T16:49:52.490Z,22.90
2022-09-03T16:52:38.662Z,22.58
2022-09-03T16:55:19.476Z,24.58
2022-09-03T16:58:00.881Z,22.80
2022-09-03T17:00:37.961Z,18.77
2022-09-03T17:03:28.936Z,18.17
2022-09-03T17:06:15.108Z,18.50
2022-09-03T17:08:55.258Z,19.38
2022-09-03T17:11:43.365Z,19.83
2022-09-03T17:14:28.462Z,18.27
2022-09-03T17:17:05.790Z,19.73
2022-09-03T17:19:43.286Z,21.02
2022-09-03T17:22:23.304Z,24.42
2022-09-03T17:25:00.568Z,25.63
2022-09-03T17:27:49.807Z,27.05
2022-09-03T17:30:23.319Z,27.27
2022-09-03T17:33:26.234Z,28.48
2022-09-03T17:36:04.528Z,32.10
2022-09-03T17:38:54.128Z,35.95
2022-09-03T17:41:33.989Z,37.67
2022-09-03T17:44:07.437Z,36.78
2022-09-03T17:46:46.244Z,33.97
2022-09-03T17:49:22.723Z,32.10
2022-09-03T17:52:03.083Z,31.40
2022-09-03T17:54:40.484Z,31.42
2022-09-03T17:57:19.369Z,32.67
2022-09-03T17:59:54.258Z,32.33
2022-09-03T18:02:31.123Z,31.52
2022-09-03T18:05:04.405Z,32.65
2022-09-03T18:07:43.256Z,33.75
2022-09-03T18:10:21.072Z,34.78
2022-09-03T18:13:01.398Z,35.55
2022-09-03T18:15:38.724Z,36.53
2022-09-03T18:18:12.621Z,35.38
2022-09-03T18:21:26.617Z,31.45
2022-09-03T18:24:19.678Z,33.60
2022-09-03T18:27:11.617Z,37.17
2022-09-03T18:30:05.452Z,36.00
2022-09-03T18:32:51.422Z,37.22
2022-09-03T18:35:37.502Z,38.17
2022-09-03T18:38:23.531Z,37.78
2022-09-03T18:41:17.196Z,39.40
2022-09-03T18:44:13.845Z,39.65
2022-09-03T18:50:24.196Z,36.20
2022-09-03T18:53:16.684Z,37.38
2022-09-03T18:56:19.346Z,35.05
2022-09-03T18:59:17.736Z,36.50
2022-09-03T19:02:03.990Z,36.00
2022-09-03T19:05:01.401Z,35.33
2022-09-03T19:07:54.263Z,36.90
2022-09-03T19:10:52.559Z,35.65
2022-09-03T19:13:50.694Z,33.03
2022-09-03T19:16:43.897Z,36.35
2022-09-03T19:19:46.481Z,36.58
2022-09-03T19:22:40.742Z,34.55
2022-09-03T19:25:29.829Z,35.40
2022-09-03T19:28:25.316Z,32.90
2022-09-03T19:31:24.451Z,32.92
2022-09-03T19:34:18.503Z,29.58
2022-09-03T19:37:14.203Z,25.30
2022-09-03T19:40:22.004Z,25.02
2022-09-03T19:43:18.225Z,26.08
2022-09-03T19:46:15.806Z,26.30
2022-09-03T19:49:16.003Z,24.67
2022-09-03T19:52:13.885Z,24.15
2022-09-03T19:54:59.913Z,24.48
2022-09-03T19:57:48.181Z,22.98
2022-09-03T20:00:34.533Z,22.70
2022-09-03T20:03:23.544Z,21.40
2022-09-03T20:06:11.487Z,20.42
2022-09-03T20:08:57.722Z,19.85
2022-09-03T20:11:29.583Z,20.75
2022-09-03T20:14:14.222Z,21.65
2022-09-03T20:16:49.204Z,22.48
2022-09-03T20:19:26.426Z,22.75
2022-09-03T20:22:00.819Z,24.58
2022-09-03T20:24:40.200Z,25.10
2022-09-03T20:27:17.853Z,26.70
2022-09-03T20:29:59.760Z,22.42
2022-09-03T20:32:58.641Z,21.92
2022-09-03T20:35:38.602Z,21.13
2022-09-03T20:38:19.076Z,20.38
2022-09-03T20:40:51.246Z,19.33
2022-09-03T20:43:38.128Z,18.08
2022-09-03T20:46:17.507Z,14.05
2022-09-03T20:48:52.486Z,11.50
2022-09-03T20:51:27.183Z,11.65
2022-09-03T20:54:10.058Z,9.48
2022-09-03T20:56:59.317Z,9.98
2022-09-03T20:59:41.971Z,8.98
2022-09-03T21:02:20.910Z,8.35
2022-09-03T21:04:55.440Z,8.98
2022-09-03T21:07:35.739Z,9.60
2022-09-03T21:10:13.465Z,10.90
2022-09-03T21:12:49.174Z,10.07
2022-09-03T21:15:25.035Z,9.23
2022-09-03T21:18:04.459Z,8.93
2022-09-03T21:20:40.948Z,9.40
2022-09-03T21:23:20.748Z,9.05
2022-09-03T21:25:55.221Z,9.38
2022-09-03T21:28:26.994Z,8.57
2022-09-03T21:30:59.093Z,8.70
2022-09-03T21:33:30.108Z,8.88
2022-09-03T21:36:07.770Z,8.90
2022-09-03T21:38:39.203Z,9.15
2022-09-03T21:41:18.146Z,9.13
2022-09-03T21:43:54.160Z,9.75
2022-09-03T21:46:26.575Z,10.43
2022-09-03T21:48:59.217Z,9.63
2022-09-03T21:51:32.367Z,10.25
2022-09-03T21:54:06.200Z,9.48
2022-09-03T21:56:57.107Z,9.80
2022-09-03T22:00:00.189Z,10.32
2022-09-03T22:02:29.990Z,10.38
2022-09-03T22:05:00.305Z,9.75
2022-09-03T22:07:40.259Z,10.52
2022-09-03T22:10:16.741Z,9.90
2022-09-03T22:12:57.065Z,10.27
2022-09-03T22:15:25.905Z,10.20
2022-09-03T22:17:59.554Z,10.95
2022-09-03T22:20:28.246Z,10.55
2022-09-03T22:22:59.071Z,11.70
2022-09-03T22:25:38.307Z,11.55
2022-09-03T22:28:14.291Z,12.02
2022-09-03T22:30:52.046Z,11.82
2022-09-03T22:33:24.903Z,12.15
2022-09-03T22:36:03.686Z,12.45
2022-09-03T22:38:47.560Z,12.73
2022-09-03T22:41:33.122Z,12.82
2022-09-03T22:44:13.530Z,13.40
2022-09-03T22:46:54.903Z,13.23
2022-09-03T22:49:35.160Z,12.63
2022-09-03T22:52:26.152Z,12.50
2022-09-03T22:55:06.442Z,13.55
2022-09-03T22:57:42.829Z,12.82
2022-09-03T23:00:12.225Z,13.52
2022-09-03T23:02:42.364Z,14.32
2022-09-03T23:05:23.680Z,14.70
2022-09-03T23:07:55.955Z,14.65
2022-09-03T23:10:29.792Z,15.30
2022-09-03T23:13:07.521Z,15.63
2022-09-03T23:15:39.051Z,15.32
2022-09-03T23:18:10.899Z,16.00
2022-09-03T23:20:42.264Z,17.50
2022-09-03T23:23:17.493Z,17.52
2022-09-03T23:25:50.425Z,18.02
2022-09-03T23:28:25.425Z,18.98
2022-09-03T23:30:55.836Z,18.90
2022-09-03T23:33:24.514Z,18.88
2022-09-03T23:36:01.788Z,18.40
2022-09-03T23:38:42.193Z,18.48
2022-09-03T23:41:17.079Z,19.92
2022-09-03T23:44:02.043Z,21.65
2022-09-03T23:46:36.001Z,23.42
2022-09-03T23:49:27.000Z,24.15
2022-09-03T23:52:12.556Z,24.15
2022-09-03T23:54:47.667Z,27.85
2022-09-03T23:57:24.558Z,28.40
